Time;durP1;ratioP1;P1;durP2;ratioP2;P2;SDS_P1;SDS_P2;PMS_P1;PMS_P2;Temp;Humidity;BMP_temperature;BMP_pressure;BME280_temperature;BME280_humidity;BME280_pressure;Samples;Min_cycle;Max_cycle;Signal;HPM_P1;HPM_P2
2021/03/17 05:03:32;;;;;;;21.15;19.25;;;;;;;1.92;84.20;93496.06;6237802;23;20009;-80
2021/03/17 05:06:02;;;;;;;22.10;20.08;;;;;;;1.73;84.95;93470.78;6161531;23;20024;-80
2021/03/17 05:08:28;;;;;;;20.88;18.42;;;;;;;1.73;85.28;93484.34;6149628;23;20024;-78
2021/03/17 05:10:53;;;;;;;21.65;19.65;;;;;;;1.76;84.06;93478.13;6186839;23;20040;-80
2021/03/17 05:13:19;;;;;;;21.13;19.13;;;;;;;1.83;84.46;93486.78;6185992;23;20005;-77
2021/03/17 05:15:46;;;;;;;23.10;21.17;;;;;;;1.93;84.31;93515.50;6211370;23;19993;-78
2021/03/17 05:18:16;;;;;;;22.65;20.55;;;;;;;1.71;84.53;93485.44;6187304;23;20005;-80
2021/03/17 05:20:42;;;;;;;22.98;20.77;;;;;;;1.69;84.60;93492.47;6120019;23;20455;-80
2021/03/17 05:25:43;;;;;;;24.00;21.70;;;;;;;1.84;85.52;93508.78;6229633;23;20027;-79
2021/03/17 05:30:48;;;;;;;22.52;20.45;;;;;;;1.77;84.50;93505.22;6200863;23;20031;-78
2021/03/17 05:33:17;;;;;;;24.88;22.38;;;;;;;1.65;84.77;93491.97;6186238;23;20060;-79
2021/03/17 05:35:42;;;;;;;24.67;21.98;;;;;;;1.72;84.88;93500.59;6211950;23;20061;-78
2021/03/17 05:38:08;;;;;;;24.30;21.73;;;;;;;1.76;84.59;93511.31;6229420;23;20019;-78
2021/03/17 05:40:38;;;;;;;24.27;21.92;;;;;;;1.74;85.05;93503.78;6154153;23;20001;-79
2021/03/17 05:46:03;;;;;;;23.23;20.48;;;;;;;1.72;83.96;93499.81;6222547;23;20410;-80
2021/03/17 05:48:29;;;;;;;22.27;20.13;;;;;;;1.66;84.42;93500.41;6154524;22;20036;-81
2021/03/17 05:50:55;;;;;;;24.13;21.63;;;;;;;1.83;84.11;93543.69;6158735;23;20009;-81
2021/03/17 05:53:21;;;;;;;23.40;21.17;;;;;;;1.62;84.62;93499.94;6133528;23;20032;-79
2021/03/17 05:58:24;;;;;;;23.23;21.02;;;;;;;1.78;84.73;93525.50;6230390;23;20021;-78
2021/03/17 06:00:50;;;;;;;22.92;20.83;;;;;;;1.68;83.19;93501.06;6184585;23;20048;-80
2021/03/17 06:03:15;;;;;;;20.73;18.77;;;;;;;1.68;83.59;93509.50;6188399;23;20012;-83
2021/03/17 06:05:41;;;;;;;22.50;20.17;;;;;;;1.75;83.77;93522.47;6099843;23;19997;-78
2021/03/17 06:10:42;;;;;;;22.70;20.40;;;;;;;1.78;83.30;93512.75;6148207;23;20013;-78
2021/03/17 06:13:12;;;;;;;20.10;18.20;;;;;;;1.94;82.84;93542.63;6171753;23;20072;-77
2021/03/17 06:20:44;;;;;;;19.05;17.25;;;;;;;1.94;82.61;93540.06;6206827;23;20024;-78
2021/03/17 06:23:13;;;;;;;19.73;17.83;;;;;;;1.92;82.57;93530.03;6184558;23;20001;-78
2021/03/17 06:25:39;;;;;;;19.30;17.40;;;;;;;1.90;81.44;93531.13;6182770;23;20024;-78
2021/03/17 06:28:04;;;;;;;19.65;17.83;;;;;;;1.90;82.24;93524.25;6182754;23;20007;-79
2021/03/17 06:30:30;;;;;;;19.55;17.70;;;;;;;1.91;82.91;93537.84;6162822;23;20001;-79
2021/03/17 06:32:55;;;;;;;19.25;17.50;;;;;;;2.06;82.30;93554.16;6186183;23;20001;-80
2021/03/17 06:35:24;;;;;;;20.95;19.08;;;;;;;1.97;83.15;93547.41;6210878;23;20058;-79
2021/03/17 06:40:28;;;;;;;20.35;18.40;;;;;;;1.90;82.13;93536.22;6214175;23;20213;-80
2021/03/17 06:43:19;;;;;;;19.48;17.65;;;;;;;1.91;81.93;93535.28;6144893;23;20009;-79
2021/03/17 06:46:05;;;;;;;20.00;17.70;;;;;;;2.01;81.65;93553.81;6209034;23;20484;-81
2021/03/17 06:48:33;;;;;;;19.73;17.85;;;;;;;2.03;82.36;93557.00;6206554;23;20428;-79
2021/03/17 06:51:20;;;;;;;19.40;17.70;;;;;;;2.16;83.01;93562.47;6227284;23;20048;-80
2021/03/17 06:53:50;;;;;;;20.60;18.60;;;;;;;1.90;82.08;93539.56;6210302;23;20008;-77
2021/03/17 06:56:19;;;;;;;18.20;16.55;;;;;;;2.03;82.14;93573.13;6183468;23;20008;-78
2021/03/17 06:59:00;;;;;;;20.33;18.27;;;;;;;1.99;82.64;93550.63;6231658;23;19985;-81
2021/03/17 07:01:40;;;;;;;22.17;20.02;;;;;;;1.99;83.39;93545.53;6158217;23;19985;-82
2021/03/17 07:04:18;;;;;;;20.20;18.40;;;;;;;2.16;83.38;93572.69;6185116;23;20080;-78
2021/03/17 07:09:41;;;;;;;20.73;18.27;;;;;;;2.15;83.09;93560.09;6195210;23;20008;-79
2021/03/17 07:14:43;;;;;;;19.55;17.70;;;;;;;2.17;81.61;93550.53;6207693;23;20025;-79
2021/03/17 07:19:44;;;;;;;19.65;17.77;;;;;;;2.24;82.43;93546.41;6154403;23;20005;-79
2021/03/17 07:22:13;;;;;;;19.17;17.48;;;;;;;2.34;81.27;93557.28;6076912;23;20033;-79
2021/03/17 07:24:40;;;;;;;19.70;17.75;;;;;;;2.17;80.91;93551.31;6185957;23;20016;-77
2021/03/17 07:27:32;;;;;;;18.00;16.25;;;;;;;2.27;80.68;93564.75;6179596;23;19989;-76
2021/03/17 07:32:55;;;;;;;16.80;15.38;;;;;;;2.33;80.16;93564.13;6176667;23;20022;-80
2021/03/17 07:35:29;;;;;;;17.58;15.73;;;;;;;2.31;80.92;93550.72;6122669;23;20027;-79
2021/03/17 07:40:30;;;;;;;17.50;15.77;;;;;;;2.34;80.23;93552.97;6231504;22;20237;-81
2021/03/17 07:42:56;;;;;;;16.80;15.23;;;;;;;2.43;79.87;93567.34;6176012;23;20049;-80
2021/03/17 07:45:22;;;;;;;17.23;15.63;;;;;;;2.39;81.18;93552.50;6140220;23;20009;-84
2021/03/17 07:47:47;;;;;;;16.60;15.02;;;;;;;2.44;80.23;93545.94;6102429;23;20009;-78
2021/03/17 07:50:14;;;;;;;18.05;16.48;;;;;;;2.45;80.19;93568.00;6138790;23;20036;-78
2021/03/17 07:52:39;;;;;;;16.73;14.88;;;;;;;2.44;80.81;93583.50;6143854;23;20040;-77
2021/03/17 07:55:06;;;;;;;16.27;14.77;;;;;;;2.37;80.76;93579.94;6156400;23;20013;-79
2021/03/17 07:57:32;;;;;;;17.77;16.08;;;;;;;2.52;81.57;93578.38;6209252;23;20012;-79
2021/03/17 08:02:33;;;;;;;17.33;15.73;;;;;;;2.37;81.79;93580.75;6198690;23;20075;-80
2021/03/17 08:04:59;;;;;;;17.50;15.90;;;;;;;2.36;81.95;93584.25;6154519;23;20005;-81
2021/03/17 08:07:24;;;;;;;16.77;15.27;;;;;;;2.41;81.40;93581.25;6121851;23;20294;-77
2021/03/17 08:09:50;;;;;;;18.00;16.05;;;;;;;2.35;82.16;93569.06;6158368;23;20012;-80
2021/03/17 08:12:16;;;;;;;16.23;14.63;;;;;;;2.29;81.10;93554.38;6199142;23;20021;-78
2021/03/17 08:14:42;;;;;;;16.13;14.73;;;;;;;2.24;80.61;93572.75;6176181;23;20005;-78
2021/03/17 08:17:11;;;;;;;16.85;15.45;;;;;;;2.27;80.99;93562.22;6179975;23;20012;-80
2021/03/17 08:19:36;;;;;;;15.83;14.43;;;;;;;2.36;81.69;93576.59;6181821;23;20009;-79
2021/03/17 08:22:07;;;;;;;16.30;14.70;;;;;;;2.13;81.77;93557.69;6205974;23;20005;-78
2021/03/17 08:24:33;;;;;;;16.30;14.95;;;;;;;2.40;80.97;93582.19;6203277;23;20092;-79
2021/03/17 08:27:00;;;;;;;17.73;16.02;;;;;;;2.27;83.22;93562.22;6202530;23;20036;-78
2021/03/17 08:29:40;;;;;;;18.52;16.88;;;;;;;2.37;82.65;93568.00;6177723;23;20024;-79
2021/03/17 08:34:40;;;;;;;17.10;15.60;;;;;;;2.33;82.87;93568.44;6216108;23;20021;-81
2021/03/17 08:37:12;;;;;;;16.83;15.13;;;;;;;2.25;82.00;93571.00;6179983;23;20008;-79
2021/03/17 08:42:25;;;;;;;14.80;13.40;;;;;;;2.30;81.67;93576.41;6118336;23;20088;-80
2021/03/17 08:44:50;;;;;;;14.73;13.32;;;;;;;2.39;81.68;93562.72;6056447;23;20029;-80
2021/03/17 08:49:53;;;;;;;15.20;13.90;;;;;;;2.35;82.75;93571.63;6201959;23;20017;-78
2021/03/17 08:52:48;;;;;;;15.13;13.73;;;;;;;2.31;83.29;93591.56;6118564;23;20002;-78
2021/03/17 08:55:35;;;;;;;15.07;13.57;;;;;;;2.25;83.62;93596.53;6144993;23;20092;-79
2021/03/17 08:58:05;;;;;;;16.55;14.95;;;;;;;2.33;84.26;93594.78;6125057;23;20069;-79
2021/03/17 09:00:54;;;;;;;16.08;14.57;;;;;;;2.25;83.43;93571.00;6165935;23;20024;-78
2021/03/17 09:03:32;;;;;;;16.08;14.73;;;;;;;2.42;84.64;93596.41;6216405;23;20004;-78
2021/03/17 09:06:07;;;;;;;15.77;14.40;;;;;;;2.37;84.55;93582.50;6193084;22;20011;-80
2021/03/17 09:19:09;;;;;;;16.98;15.48;;;;;;;2.29;84.52;93582.47;6208485;23;20016;-81
2021/03/17 09:24:28;;;;;;;15.05;13.77;;;;;;;2.39;84.26;93603.56;6205958;23;20008;-77
2021/03/17 09:27:00;;;;;;;16.20;14.63;;;;;;;2.40;84.38;93584.75;6207072;23;20009;-77
2021/03/17 09:29:26;;;;;;;15.18;13.77;;;;;;;2.45;84.42;93595.28;6208108;23;20350;-79
2021/03/17 09:31:55;;;;;;;15.00;13.70;;;;;;;2.39;84.73;93598.47;6179578;23;20005;-78
2021/03/17 09:34:27;;;;;;;15.68;14.40;;;;;;;2.29;85.10;93597.78;6178529;23;20013;-78
2021/03/17 09:37:07;;;;;;;17.52;15.85;;;;;;;2.27;85.44;93597.16;6153891;23;20379;-77
2021/03/17 09:39:33;;;;;;;16.40;14.93;;;;;;;2.15;85.25;93603.50;6176361;23;20009;-81
2021/03/17 09:41:58;;;;;;;18.23;16.58;;;;;;;2.36;86.07;93602.13;6183519;23;20009;-78
2021/03/17 09:44:24;;;;;;;18.48;16.77;;;;;;;2.26;85.40;93593.78;6122706;23;20526;-78
2021/03/17 09:46:53;;;;;;;18.00;16.40;;;;;;;2.33;85.73;93615.22;6176537;23;20013;-83
2021/03/17 09:49:23;;;;;;;19.92;17.92;;;;;;;2.12;86.40;93584.97;6129306;23;19993;-81
2021/03/17 09:51:49;;;;;;;;;;;;;;;2.30;85.62;93612.97;6154333;23;20044;-79
2021/03/17 09:54:17;;;;;;;18.60;16.80;;;;;;;1.99;85.35;93596.56;6175149;23;19916;-79
2021/03/17 09:56:47;;;;;;;49.80;24.73;;;;;;;2.29;86.29;93598.59;6151636;23;19989;-79
2021/03/17 09:59:15;;;;;;;19.75;17.85;;;;;;;2.11;85.80;93620.88;6125065;23;20029;-79
2021/03/17 10:02:02;;;;;;;22.40;20.13;;;;;;;2.06;85.98;93611.09;6175724;23;19986;-78
2021/03/17 10:04:35;;;;;;;21.70;19.10;;;;;;;2.24;86.36;93615.34;6173796;23;19997;-79
2021/03/17 10:07:02;;;;;;;20.67;18.48;;;;;;;2.08;86.04;93593.09;6171189;23;20005;-79
2021/03/17 10:09:29;;;;;;;21.23;19.13;;;;;;;2.31;85.84;93622.22;6151828;23;20006;-78
2021/03/17 10:12:01;;;;;;;18.45;16.55;;;;;;;2.14;85.69;93597.59;6124051;23;20012;-79
2021/03/17 10:14:27;;;;;;;20.38;18.10;;;;;;;2.15;85.76;93599.19;6170045;23;20009;-78
2021/03/17 10:16:53;;;;;;;20.75;18.75;;;;;;;2.08;85.36;93590.56;6121118;23;20012;-78
2021/03/17 10:19:19;;;;;;;19.95;18.05;;;;;;;2.11;85.43;93597.91;6173760;23;20028;-80
2021/03/17 10:21:45;;;;;;;19.88;18.08;;;;;;;2.18;85.78;93591.22;6152896;23;19998;-79
2021/03/17 10:24:11;;;;;;;20.00;18.10;;;;;;;2.28;84.93;93603.88;6171518;23;20614;-78
2021/03/17 10:26:38;;;;;;;21.30;19.30;;;;;;;2.50;85.88;93621.19;6130601;23;20005;-80
2021/03/17 10:29:04;;;;;;;21.25;19.23;;;;;;;2.33;85.28;93599.88;6152222;23;20024;-80
2021/03/17 10:31:33;;;;;;;19.55;17.83;;;;;;;2.12;85.51;93602.84;6122158;23;20014;-78
2021/03/17 10:33:59;;;;;;;21.75;19.63;;;;;;;2.26;85.36;93629.53;6123135;23;20032;-77
2021/03/17 10:36:26;;;;;;;21.75;19.67;;;;;;;2.34;85.79;93609.16;6175902;23;20038;-78
2021/03/17 10:38:52;;;;;;;20.15;18.30;;;;;;;2.35;85.11;93636.28;6145732;23;20032;-78
2021/03/17 10:41:37;;;;;;;22.88;20.60;;;;;;;2.26;85.91;93638.97;6150360;23;20005;-78
2021/03/17 10:44:18;;;;;;;20.50;18.58;;;;;;;2.16;86.30;93633.97;6170358;23;20347;-78
2021/03/17 10:49:23;;;;;;;20.63;18.63;;;;;;;2.03;86.72;93596.09;6223369;23;20055;-79
2021/03/17 10:51:56;;;;;;;20.75;18.55;;;;;;;1.95;86.82;93613.94;6199816;23;20008;-78
2021/03/17 10:54:38;;;;;;;21.25;19.13;;;;;;;2.11;87.26;93621.69;6180147;23;20043;-81
2021/03/17 10:57:04;;;;;;;20.98;18.40;;;;;;;2.04;86.97;93627.53;6171751;23;20001;-81
2021/03/17 10:59:38;;;;;;;21.33;19.05;;;;;;;2.20;87.63;93617.41;6175214;23;19997;-79
2021/03/17 11:02:23;;;;;;;22.73;20.50;;;;;;;2.42;87.16;93639.81;6177652;23;20005;-78
2021/03/17 11:05:11;;;;;;;22.15;19.95;;;;;;;2.27;87.31;93632.91;6198511;23;20001;-79
2021/03/17 11:07:49;;;;;;;22.75;20.25;;;;;;;2.08;87.15;93629.66;6173601;23;20047;-78
2021/03/17 11:10:33;;;;;;;22.13;19.98;;;;;;;2.18;87.59;93634.63;6174518;23;20001;-79
2021/03/17 11:13:00;;;;;;;23.95;21.35;;;;;;;2.28;88.00;93627.63;6179583;23;20352;-78
2021/03/17 11:15:30;;;;;;;23.90;21.55;;;;;;;2.33;87.51;93625.44;6174947;23;20016;-78
2021/03/17 11:18:55;;;;;;;23.70;21.00;;;;;;;-142.70;100.00;60390.16;6202067;23;20395;-79
2021/03/17 11:26:06;;;;;;;24.27;21.73;;;;;;;-142.70;100.00;60390.16;6227883;22;20007;-78
2021/03/17 11:29:35;;;;;;;23.60;21.30;;;;;;;-142.70;100.00;60390.16;6175128;23;20024;-78
2021/03/17 11:33:07;;;;;;;22.83;20.45;;;;;;;-142.70;100.00;60390.16;6187061;23;20009;-76
2021/03/17 11:36:31;;;;;;;23.52;21.33;;;;;;;-142.70;100.00;60390.16;6206133;23;20040;-79
2021/03/17 11:39:55;;;;;;;24.90;22.42;;;;;;;-142.70;100.00;60390.16;6202986;22;20037;31
2021/03/17 11:43:21;;;;;;;25.52;22.95;;;;;;;-142.70;100.00;60390.16;6119314;23;20096;-76
2021/03/17 11:46:46;;;;;;;25.10;22.50;;;;;;;-142.70;100.00;60390.16;6138125;23;19993;-79
2021/03/17 11:50:10;;;;;;;27.90;24.90;;;;;;;-142.70;100.00;60390.16;6178389;23;20059;-82
2021/03/17 11:53:35;;;;;;;26.58;23.50;;;;;;;-142.70;100.00;60390.16;6183640;23;20028;-78
2021/03/17 12:00:23;;;;;;;31.85;25.50;;;;;;;-142.70;100.00;60390.16;6205325;23;20017;-78
2021/03/17 12:03:47;;;;;;;27.35;24.45;;;;;;;-142.70;100.00;60390.16;6171127;23;20028;-80
2021/03/17 12:07:11;;;;;;;26.10;23.48;;;;;;;-142.70;100.00;60390.16;6167595;23;20004;-80
2021/03/17 12:10:35;;;;;;;27.95;24.02;;;;;;;-142.70;100.00;60390.16;6191282;23;20025;-79
2021/03/17 12:14:00;;;;;;;26.73;23.45;;;;;;;-142.70;100.00;60390.16;6197101;23;19997;-82
2021/03/17 12:17:24;;;;;;;27.83;24.92;;;;;;;-142.70;100.00;60390.16;6166384;23;20455;-77
2021/03/17 12:20:48;;;;;;;26.75;23.85;;;;;;;-142.70;100.00;60390.16;6154294;23;20116;-79
2021/03/17 12:24:12;;;;;;;26.53;23.73;;;;;;;-142.70;100.00;60390.16;6193327;23;20005;31
2021/03/17 12:30:13;;;;;;;27.63;24.33;;;;;;;-142.70;100.00;60390.16;6211421;23;20025;-77
2021/03/17 12:33:20;;;;;;;26.63;23.85;;;;;;;-142.70;100.00;60390.16;6225032;23;20001;-78
2021/03/17 12:35:46;;;;;;;26.83;24.00;;;;;;;-142.70;100.00;60390.16;6193630;23;20446;-78
2021/03/17 12:38:12;;;;;;;27.90;24.85;;;;;;;2.03;89.47;93638.69;6173710;23;20020;-78
2021/03/17 12:40:40;;;;;;;28.50;25.38;;;;;;;1.72;90.35;93635.81;6207397;23;20003;-80
2021/03/17 12:45:41;;;;;;;30.85;25.95;;;;;;;1.83;90.58;93647.53;6222570;23;20025;-80
2021/03/17 12:48:07;;;;;;;29.98;26.08;;;;;;;1.87;90.96;93649.63;6186073;23;20008;-80
2021/03/17 12:50:33;;;;;;;32.83;28.30;;;;;;;1.86;90.88;93647.22;6188533;23;20013;-82
2021/03/17 12:53:00;;;;;;;29.02;26.02;;;;;;;-142.70;100.00;60390.16;6158746;23;20060;-80
2021/03/17 12:58:01;;;;;;;30.60;27.50;;;;;;;1.76;91.17;93647.34;6154301;22;20011;-78
2021/03/17 13:00:28;;;;;;;30.80;27.15;;;;;;;1.76;91.51;93672.84;6156994;23;20009;-80
2021/03/17 13:02:54;;;;;;;27.52;24.52;;;;;;;1.84;91.64;93666.97;6209420;23;20005;-83
2021/03/17 13:07:54;;;;;;;32.22;28.60;;;;;;;1.62;91.97;93664.94;6139530;22;20366;-79
2021/03/17 13:10:21;;;;;;;30.52;27.13;;;;;;;1.82;92.02;93697.75;6178052;23;20021;-80
2021/03/17 13:12:47;;;;;;;29.70;26.48;;;;;;;1.79;92.13;93670.00;6149485;22;20073;-79
2021/03/17 13:20:37;;;;;;;31.05;27.52;;;;;;;1.82;91.77;93689.31;6206864;22;20103;-79
2021/03/17 13:26:13;;;;;;;29.60;25.38;;;;;;;1.75;91.39;93670.44;6226408;23;20024;-84
2021/03/17 13:28:40;;;;;;;30.60;23.90;;;;;;;1.79;91.76;93677.66;6184116;23;20040;-80
2021/03/17 13:38:48;;;;;;;29.05;25.95;;;;;;;1.93;91.04;93705.16;6164011;23;20025;-81
2021/03/17 13:41:14;;;;;;;29.42;26.30;;;;;;;1.77;91.24;93692.28;6094482;23;20024;-80
2021/03/17 13:49:25;;;;;;;35.95;28.08;;;;;;;1.49;93.18;93685.72;6191242;23;20040;-83
2021/03/17 13:59:37;;;;;;;32.70;26.95;;;;;;;1.36;93.31;93690.38;6155659;23;20035;-80
2021/03/17 14:02:02;;;;;;;33.83;29.67;;;;;;;1.61;93.36;93719.47;6186664;23;20017;-81
2021/03/17 14:04:29;;;;;;;28.83;25.73;;;;;;;1.44;93.05;93698.94;6184861;22;20000;-82
2021/03/17 14:09:30;;;;;;;26.88;24.20;;;;;;;1.58;91.25;93680.53;6204403;23;20017;-82
2021/03/17 14:14:32;;;;;;;28.55;25.55;;;;;;;1.66;91.04;93704.50;6217836;23;19922;-79
2021/03/17 14:16:58;;;;;;;27.73;24.88;;;;;;;1.54;91.77;93691.19;6211277;22;20008;-79
2021/03/17 14:19:23;;;;;;;29.48;26.48;;;;;;;1.46;92.23;93696.22;6183100;23;20066;-79
2021/03/17 14:21:49;;;;;;;32.03;28.13;;;;;;;1.48;92.62;93712.16;6204708;23;20000;-80
2021/03/17 14:24:14;;;;;;;31.25;27.65;;;;;;;1.53;92.29;93722.72;6209477;23;20000;-80
2021/03/17 14:26:43;;;;;;;31.80;28.13;;;;;;;1.43;92.76;93702.41;6211871;23;20397;-81
2021/03/17 14:29:09;;;;;;;33.75;30.23;;;;;;;1.52;92.70;93705.81;6207931;22;20020;-80
2021/03/17 14:34:10;;;;;;;34.25;29.88;;;;;;;1.40;93.21;93727.41;6213356;22;20001;-82
2021/03/17 14:36:36;;;;;;;32.33;28.85;;;;;;;1.35;93.64;93706.66;6186469;22;20062;-81
2021/03/17 14:39:01;;;;;;;30.13;26.77;;;;;;;1.40;93.18;93723.09;6186879;23;20000;-79
2021/03/17 14:41:27;;;;;;;30.60;27.38;;;;;;;1.29;93.46;93715.66;6187523;23;19997;-80
2021/03/17 14:43:53;;;;;;;32.05;28.65;;;;;;;1.44;93.32;93731.28;6188802;22;20024;-78
2021/03/17 14:46:18;;;;;;;31.75;28.33;;;;;;;1.39;93.82;93736.00;6185850;23;20015;-81
2021/03/17 14:48:44;;;;;;;32.42;27.38;;;;;;;1.20;93.73;93711.44;6188278;23;20060;-79
2021/03/17 14:51:09;;;;;;;36.85;30.25;;;;;;;1.28;94.21;93743.88;6157150;23;20016;-79
2021/03/17 14:53:36;;;;;;;38.55;30.77;;;;;;;1.13;94.41;93727.47;6184131;22;19992;-82
2021/03/17 14:56:03;;;;;;;33.78;29.70;;;;;;;1.13;94.18;93730.00;6158402;23;20017;-80
2021/03/17 14:58:28;;;;;;;36.75;31.02;;;;;;;1.16;94.40;93729.72;6152742;23;20017;-83
2021/03/17 15:00:54;;;;;;;31.65;27.75;;;;;;;1.31;94.26;93741.84;6181553;23;20037;-78
2021/03/17 15:03:19;;;;;;;35.85;30.77;;;;;;;1.20;94.44;93757.34;6160973;22;19985;-79
2021/03/17 15:05:46;;;;;;;35.70;28.45;;;;;;;1.24;94.83;93761.19;6182348;23;20005;-81
2021/03/17 15:08:12;;;;;;;39.03;31.70;;;;;;;1.16;94.37;93743.25;6158578;23;19985;-81
2021/03/17 15:10:38;;;;;;;50.97;41.20;;;;;;;1.08;94.74;93735.56;6186476;23;19993;-80
2021/03/17 15:13:05;;;;;;;36.15;30.98;;;;;;;1.11;94.56;93737.00;6185558;22;19997;-79
2021/03/17 15:18:27;;;;;;;36.80;32.78;;;;;;;1.31;94.34;93776.72;6211804;22;20009;-79
2021/03/17 15:20:55;;;;;;;39.05;32.25;;;;;;;1.19;96.57;93753.16;6162604;23;20006;-81
2021/03/17 15:23:26;;;;;;;39.50;31.55;;;;;;;1.12;96.75;93748.81;6134982;23;20001;-80
2021/03/17 15:26:12;;;;;;;41.50;32.38;;;;;;;1.02;96.33;93743.78;6157695;23;20006;-79
2021/03/17 15:28:47;;;;;;;36.55;32.58;;;;;;;1.10;95.37;93751.50;6153386;23;19990;-81
2021/03/17 15:31:12;;;;;;;36.92;30.50;;;;;;;1.18;94.81;93753.34;6150144;23;19986;-79
2021/03/17 15:33:38;;;;;;;37.55;31.35;;;;;;;1.14;94.79;93755.38;6104195;23;20001;-81
2021/03/17 15:36:05;;;;;;;37.95;31.88;;;;;;;1.24;95.18;93776.50;6094730;23;20014;-78
2021/03/17 15:38:32;;;;;;;36.47;31.98;;;;;;;1.20;95.32;93782.81;6137072;23;20427;-78
2021/03/17 15:41:00;;;;;;;31.92;27.65;;;;;;;1.08;95.27;93761.03;6133711;23;20036;-79
2021/03/17 15:43:25;;;;;;;30.17;25.85;;;;;;;1.21;95.02;93781.88;6111479;23;20028;-78
2021/03/17 15:46:01;;;;;;;32.47;26.77;;;;;;;0.98;95.27;93763.66;6107087;23;20463;-79
2021/03/17 15:48:27;;;;;;;35.20;30.23;;;;;;;1.19;95.38;93776.13;6108678;23;20029;-79
2021/03/17 15:50:53;;;;;;;33.95;27.67;;;;;;;1.26;95.15;93784.78;6088801;23;20092;-76
2021/03/17 15:53:19;;;;;;;36.28;27.88;;;;;;;1.20;95.44;93795.56;6123205;23;20013;-77
2021/03/17 15:55:44;;;;;;;36.83;23.65;;;;;;;1.17;95.36;93782.31;6121664;23;20005;-77
2021/03/17 15:58:10;;;;;;;33.85;28.30;;;;;;;1.08;95.24;93781.44;6126297;23;20009;-77
2021/03/17 16:00:36;;;;;;;32.53;27.08;;;;;;;1.19;95.43;93800.81;6126427;23;20032;-77
2021/03/17 16:03:02;;;;;;;34.22;29.77;;;;;;;1.25;94.89;93790.06;6078974;23;20484;-77
2021/03/17 16:05:27;;;;;;;29.00;25.55;;;;;;;1.23;95.47;93797.84;6152305;23;20005;-75
2021/03/17 16:07:53;;;;;;;36.08;28.63;;;;;;;1.11;95.43;93793.88;6153176;23;20012;-78
2021/03/17 16:10:19;;;;;;;30.25;26.67;;;;;;;1.22;95.14;93796.22;6101747;23;20037;-77
2021/03/17 16:12:45;;;;;;;32.25;27.60;;;;;;;1.20;95.53;93805.75;6076552;23;20009;-76
2021/03/17 16:15:14;;;;;;;30.27;26.40;;;;;;;1.20;95.52;93803.22;6100004;23;20021;-76
2021/03/17 16:17:41;;;;;;;33.28;27.08;;;;;;;1.14;95.44;93808.09;6076992;23;20081;-76
2021/03/17 16:20:08;;;;;;;30.08;26.80;;;;;;;1.20;95.38;93808.31;6134695;23;20029;-76
2021/03/17 16:22:34;;;;;;;29.33;25.98;;;;;;;1.27;95.43;93814.44;6071760;23;20014;-76
2021/03/17 16:25:00;;;;;;;34.60;27.75;;;;;;;1.15;95.38;93814.78;6096155;23;20455;-78
2021/03/17 16:27:27;;;;;;;36.60;30.15;;;;;;;0.97;95.80;93792.59;6047185;23;20021;-77
2021/03/17 16:29:52;;;;;;;33.03;27.02;;;;;;;1.01;95.36;93795.69;6077583;23;20501;-77
2021/03/17 16:32:18;;;;;;;42.50;32.95;;;;;;;1.00;95.46;93799.97;6072392;23;20448;-76
2021/03/17 16:34:44;;;;;;;38.60;29.70;;;;;;;1.10;95.41;93815.22;6076812;23;20025;-78
2021/03/17 16:37:10;;;;;;;39.70;30.15;;;;;;;1.10;95.67;93814.41;6073687;23;20013;-78
2021/03/17 16:39:36;;;;;;;52.63;35.65;;;;;;;1.07;95.83;93823.13;6074684;23;19998;-76
2021/03/17 16:42:02;;;;;;;46.63;34.70;;;;;;;1.08;96.06;93823.94;6064050;23;20001;-77
2021/03/17 16:44:28;;;;;;;40.60;33.50;;;;;;;1.30;95.85;93829.47;6070177;23;20002;-78
2021/03/17 16:46:54;;;;;;;35.42;29.42;;;;;;;1.17;95.70;93834.09;6071852;23;20440;-76
2021/03/17 16:49:20;;;;;;;36.60;28.52;;;;;;;1.16;95.63;93831.66;6119522;23;20006;-78
2021/03/17 16:51:45;;;;;;;36.85;27.02;;;;;;;1.13;95.64;93830.22;6050426;23;20002;-76
2021/03/17 16:54:11;;;;;;;33.10;29.08;;;;;;;1.14;95.60;93836.94;6046226;23;20472;-77
2021/03/17 16:56:36;;;;;;;32.65;28.63;;;;;;;1.11;95.75;93834.66;6095135;23;20005;-78
2021/03/17 16:59:02;;;;;;;37.00;28.90;;;;;;;1.19;95.71;93839.06;6046579;23;20010;-77
2021/03/17 17:01:27;;;;;;;33.08;27.55;;;;;;;1.13;95.42;93847.25;6072058;23;20467;-75
2021/03/17 17:03:53;;;;;;;28.88;25.83;;;;;;;1.22;95.60;93848.97;6095887;23;20006;-77
2021/03/17 17:06:18;;;;;;;32.08;28.17;;;;;;;1.20;95.52;93853.41;6096839;23;20420;-77
2021/03/17 17:08:44;;;;;;;36.53;29.35;;;;;;;1.16;95.54;93857.97;6075241;23;20017;-77
2021/03/17 17:11:09;;;;;;;35.50;30.33;;;;;;;1.15;95.53;93860.69;6072409;23;20002;-77
2021/03/17 17:13:34;;;;;;;36.53;29.52;;;;;;;1.12;95.76;93874.50;6074673;23;20002;-77
2021/03/17 17:16:00;;;;;;;37.33;28.15;;;;;;;1.11;95.76;93869.53;6072930;23;19998;-77
2021/03/17 17:18:25;;;;;;;35.95;29.80;;;;;;;1.15;96.13;93863.22;6071565;23;20009;-76
2021/03/17 17:20:51;;;;;;;36.05;29.67;;;;;;;1.17;95.71;93862.13;6069526;23;20018;-76
2021/03/17 17:23:16;;;;;;;37.95;29.58;;;;;;;1.11;95.77;93867.81;6069501;23;20057;-76
2021/03/17 17:25:42;;;;;;;35.75;28.85;;;;;;;1.16;95.54;93872.47;6071346;23;20010;-77
2021/03/17 17:28:08;;;;;;;36.38;29.67;;;;;;;1.12;95.92;93868.59;6094715;23;20114;-76
2021/03/17 17:30:36;;;;;;;36.85;27.17;;;;;;;1.10;95.90;93867.94;6093793;23;20467;-75
2021/03/17 17:33:02;;;;;;;36.42;29.45;;;;;;;1.12;95.79;93877.06;6094230;23;20030;-77
2021/03/17 17:35:28;;;;;;;30.25;26.95;;;;;;;1.16;95.46;93860.53;6095126;23;20097;-76
2021/03/17 17:37:54;;;;;;;30.30;26.65;;;;;;;1.15;95.66;93878.53;6070168;23;20013;-76
2021/03/17 17:40:23;;;;;;;38.17;30.00;;;;;;;1.14;95.29;93880.25;6093647;23;20005;-76
2021/03/17 17:42:48;;;;;;;29.40;24.02;;;;;;;1.16;95.71;93875.81;6094898;23;20002;-76
2021/03/17 17:45:14;;;;;;;36.40;27.88;;;;;;;1.14;95.73;93879.44;6071436;23;20491;-76
2021/03/17 17:47:40;;;;;;;34.45;27.58;;;;;;;1.15;95.52;93888.72;6120058;23;20707;-76
2021/03/17 17:50:06;;;;;;;32.45;27.77;;;;;;;1.15;96.04;93884.44;6069450;23;20006;-77
2021/03/17 17:52:32;;;;;;;34.30;26.88;;;;;;;1.13;95.79;93883.75;6069773;23;20014;-76
2021/03/17 17:54:57;;;;;;;32.55;27.23;;;;;;;1.13;95.69;93883.75;6067849;23;20094;-76
2021/03/17 17:57:23;;;;;;;30.70;25.98;;;;;;;1.14;95.80;93890.47;6070147;23;20800;-76
2021/03/17 17:59:49;;;;;;;35.13;27.58;;;;;;;1.18;95.61;93891.78;6068878;23;20433;-77
2021/03/17 18:02:14;;;;;;;31.75;26.35;;;;;;;1.18;95.57;93896.88;6067353;23;20006;-76
2021/03/17 18:04:40;;;;;;;31.10;26.10;;;;;;;1.15;95.74;93897.16;6119606;23;20010;-76
2021/03/17 18:07:05;;;;;;;35.05;27.73;;;;;;;1.22;95.90;93905.06;6069041;23;19998;-75
2021/03/17 18:09:31;;;;;;;32.00;25.85;;;;;;;1.37;95.14;93896.78;6121577;23;20017;-77
2021/03/17 18:11:56;;;;;;;32.38;25.63;;;;;;;1.16;95.66;93897.94;6093535;23;20002;-76
2021/03/17 18:14:22;;;;;;;35.45;27.33;;;;;;;1.20;95.59;93907.75;6069773;23;20053;-76
2021/03/17 18:16:47;;;;;;;35.75;29.38;;;;;;;1.16;95.55;93911.50;6118862;23;20010;-76
2021/03/17 18:19:12;;;;;;;30.00;26.75;;;;;;;1.17;95.73;93910.56;6070516;23;20108;-77
2021/03/17 18:21:38;;;;;;;34.65;26.73;;;;;;;1.18;95.90;93917.28;6044251;23;20002;-76
2021/03/17 18:24:04;;;;;;;35.17;28.67;;;;;;;1.15;95.61;93915.00;6092013;23;20010;-75
2021/03/17 18:26:29;;;;;;;38.10;28.75;;;;;;;1.16;95.83;93908.16;6116037;23;20006;-76
2021/03/17 18:28:55;;;;;;;37.67;29.98;;;;;;;1.19;96.03;93916.31;6115449;23;20488;-75
2021/03/17 18:31:20;;;;;;;36.83;29.20;;;;;;;1.17;95.63;93913.13;6116498;23;20006;-76
2021/03/17 18:33:46;;;;;;;38.63;26.73;;;;;;;1.16;96.16;93914.06;6092305;23;20002;-76
2021/03/17 18:36:11;;;;;;;36.58;27.50;;;;;;;1.18;95.88;93913.94;6090733;23;20010;-76
2021/03/17 18:38:37;;;;;;;35.83;26.73;;;;;;;1.21;96.12;93923.84;6117169;23;20002;-76
2021/03/17 18:41:03;;;;;;;31.90;27.15;;;;;;;1.16;95.88;93921.69;6116327;23;20053;-77
2021/03/17 18:43:30;;;;;;;33.78;26.83;;;;;;;1.12;95.92;93924.69;6067805;23;20076;-76
2021/03/17 18:45:55;;;;;;;35.67;29.10;;;;;;;1.14;95.97;93923.59;6047235;23;20097;-76